Time;durP1;ratioP1;P1;durP2;ratioP2;P2;SDS_P1;SDS_P2;PMS_P1;PMS_P2;Temp;Humidity;BMP_temperature;BMP_pressure;BME280_temperature;BME280_humidity;BME280_pressure;Samples;Min_cycle;Max_cycle;Signal;HPM_P1;HPM_P2
2021/10/09 00:00:16;;;;;;;;;;;;;;;19.26;63.88;101822.72;5050484;28;1981;-36
2021/10/09 00:02:42;;;;;;;;;;;;;;;19.26;63.31;101824.56;5046326;28;1786;-36
2021/10/09 00:05:09;;;;;;;;;;;;;;;19.23;63.26;101817.56;5042095;28;1578;-36
2021/10/09 00:07:35;;;;;;;;;;;;;;;19.23;63.97;101824.78;5036642;28;1009;-36
2021/10/09 00:10:04;;;;;;;;;;;;;;;19.26;63.71;101821.88;5049290;28;2051;-36
2021/10/09 00:12:32;;;;;;;;;;;;;;;19.21;64.34;101816.00;5050757;28;1566;-36
2021/10/09 00:14:59;;;;;;;;;;;;;;;19.23;63.92;101814.06;5051053;28;1594;-36
2021/10/09 00:17:28;;;;;;;;;;;;;;;19.21;64.21;101806.09;5044491;28;1928;-36
2021/10/09 00:19:55;;;;;;;;;;;;;;;19.23;63.72;101819.41;5048071;28;1902;-36
2021/10/09 00:22:21;;;;;;;;;;;;;;;19.23;63.69;101824.78;5045630;28;1957;-36
2021/10/09 00:24:47;;;;;;;;;;;;;;;19.21;63.46;101813.31;5041409;28;1832;-36
2021/10/09 00:27:14;;;;;;;;;;;;;;;19.21;63.41;101818.66;5043255;28;1773;-36
2021/10/09 00:29:42;;;;;;;;;;;;;;;19.23;63.52;101819.41;5045536;28;1600;-37
2021/10/09 00:32:08;;;;;;;;;;;;;;;19.21;64.15;101806.09;5051727;28;1899;-36
2021/10/09 00:34:35;;;;;;;;;;;;;;;19.23;63.80;101817.56;5051296;28;1606;-36
2021/10/09 00:37:01;;;;;;;;;;;;;;;19.21;64.39;101821.34;5044782;28;1083;-36
2021/10/09 00:39:28;;;;;;;;;;;;;;;19.20;63.81;101812.47;5047766;28;1910;-36
2021/10/09 00:41:54;;;;;;;;;;;;;;;19.21;63.54;101810.63;5051478;28;1580;-36
2021/10/09 00:44:21;;;;;;;;;;;;;;;19.18;64.38;101805.47;5049187;28;1869;-37
2021/10/09 00:46:48;;;;;;;;;;;;;;;19.21;63.53;101807.94;5048922;28;1631;-36
2021/10/09 00:49:16;;;;;;;;;;;;;;;19.20;63.61;101804.41;5046761;28;1774;-36
2021/10/09 00:51:42;;;;;;;;;;;;;;;19.22;63.34;101809.66;5044704;28;993;-36
2021/10/09 00:54:09;;;;;;;;;;;;;;;19.20;63.37;101792.81;5040580;28;1936;-36
2021/10/09 00:56:37;;;;;;;;;;;;;;;19.21;63.18;101799.91;5050010;28;1763;-36
2021/10/09 00:59:04;;;;;;;;;;;;;;;19.23;63.76;101800.66;5053797;28;1898;-36
2021/10/09 01:01:30;;;;;;;;;;;;;;;19.19;63.98;101794.63;5012707;28;1116779;-36
2021/10/09 01:04:00;;;;;;;;;;;;;;;19.22;63.25;101790.91;5047505;28;1630;-36
2021/10/09 01:06:26;;;;;;;;;;;;;;;19.21;63.86;101786.50;5049203;28;1818;-36
2021/10/09 01:08:52;;;;;;;;;;;;;;;19.18;63.15;101792.06;5044381;28;1675;-36
2021/10/09 01:11:19;;;;;;;;;;;;;;;19.19;64.17;101801.84;5053927;28;1624;-36
2021/10/09 01:13:45;;;;;;;;;;;;;;;19.15;64.32;101776.22;5054082;28;1919;-36
2021/10/09 01:16:18;;;;;;;;;;;;;;;19.20;63.21;101792.81;5055029;28;1610;-36
2021/10/09 01:18:47;;;;;;;;;;;;;;;19.17;63.27;101795.72;5056353;28;1051;-36
2021/10/09 01:21:15;;;;;;;;;;;;;;;19.17;63.68;101793.91;5040304;28;2048;-36
2021/10/09 01:23:41;;;;;;;;;;;;;;;19.17;63.57;101787.69;5048671;28;1683;-36
2021/10/09 01:26:08;;;;;;;;;;;;;;;19.19;63.67;101796.47;5055303;28;1805;-37
2021/10/09 01:28:36;;;;;;;;;;;;;;;19.19;64.08;101788.44;5055683;28;1784;-36
2021/10/09 01:31:02;;;;;;;;;;;;;;;19.18;63.33;101794.75;5051567;28;1488;-36
2021/10/09 01:33:29;;;;;;;;;;;;;;;19.19;63.78;101799.16;5054962;28;1901;-36
2021/10/09 01:35:56;;;;;;;;;;;;;;;19.19;63.90;101799.16;5048742;28;1989;-36
2021/10/09 01:38:25;;;;;;;;;;;;;;;19.16;63.85;101794.88;5039277;28;1720;-37
2021/10/09 01:40:52;;;;;;;;;;;;;;;19.16;63.38;101797.56;5050755;28;1906;-37
2021/10/09 01:43:19;;;;;;;;;;;;;;;19.13;64.25;101781.69;5053425;28;1646;-37
2021/10/09 01:45:46;;;;;;;;;;;;;;;19.15;64.20;101797.66;5047521;28;1352;-36
2021/10/09 01:48:13;;;;;;;;;;;;;;;19.15;63.29;101801.19;5054484;28;1754;-36
2021/10/09 01:50:40;;;;;;;;;;;;;;;19.16;63.28;101785.97;5054942;28;1734;-36
2021/10/09 01:53:07;;;;;;;;;;;;;;;19.14;63.94;101788.78;5055250;28;1769;-37
2021/10/09 01:55:36;;;;;;;;;;;;;;;19.17;64.02;101803.78;5053394;28;1598;-37
2021/10/09 01:58:03;;;;;;;;;;;;;;;19.18;63.19;101797.44;5035708;28;1109;-36
2021/10/09 02:03:02;;;;;;;;;;;;;;;19.20;63.32;101811.56;5040363;28;1665;-37
2021/10/09 02:05:29;;;;;;;;;;;;;;;19.16;64.16;101805.59;5047153;28;1817;-36
2021/10/09 02:07:56;;;;;;;;;;;;;;;19.16;63.96;101796.69;5039731;28;2130;-36
2021/10/09 02:10:22;;;;;;;;;;;;;;;19.17;63.53;101814.50;5044706;28;1287;-36
2021/10/09 02:12:50;;;;;;;;;;;;;;;19.17;63.09;101806.44;5045898;28;1819;-37
2021/10/09 02:15:19;;;;;;;;;;;;;;;19.16;63.68;101807.41;5040372;28;1596;-36
2021/10/09 02:26:05;;;;;;;;;;;;;;;19.11;64.12;101805.06;5044116;28;1530;-37
2021/10/09 02:28:33;;;;;;;;;;;;;;;19.12;64.59;101793.38;5046244;28;1672;-37
2021/10/09 02:31:00;;;;;;;;;;;;;;;19.13;64.54;101796.91;5043923;28;1209;-36
2021/10/09 02:33:26;;;;;;;;;;;;;;;19.13;64.46;101792.41;5041019;28;1767;-36
2021/10/09 02:35:53;;;;;;;;;;;;;;;19.16;64.10;101802.94;5039835;28;1566;-36
2021/10/09 02:38:20;;;;;;;;;;;;;;;19.16;64.38;101784.16;5037428;28;1616;-36
2021/10/09 02:40:46;;;;;;;;;;;;;;;19.14;64.25;101793.25;5044029;28;1910;-36
2021/10/09 02:43:14;;;;;;;;;;;;;;;19.13;64.47;101796.91;5050699;28;1726;-37
2021/10/09 02:45:42;;;;;;;;;;;;;;;19.12;63.36;101784.47;5053186;28;1649;-36
2021/10/09 02:48:09;;;;;;;;;;;;;;;19.11;64.14;101788.97;5043120;28;1756;-36
2021/10/09 02:50:36;;;;;;;;;;;;;;;19.12;63.68;101804.13;5047257;28;1640;-36
2021/10/09 02:53:03;;;;;;;;;;;;;;;19.14;64.39;101801.31;5044933;28;1770;-36
2021/10/09 02:55:29;;;;;;;;;;;;;;;19.15;63.90;101784.25;5053178;28;1697;-36
2021/10/09 02:57:56;;;;;;;;;;;;;;;19.10;63.40;101786.41;5050810;28;1763;-36
2021/10/09 03:00:22;;;;;;;;;;;;;;;19.12;63.97;101792.50;5046206;28;1909;-36
2021/10/09 03:02:50;;;;;;;;;;;;;;;19.14;63.47;101782.53;5047966;28;1676;-36
2021/10/09 03:05:18;;;;;;;;;;;;;;;19.16;63.59;101791.31;5045707;28;1874;-36
2021/10/09 03:07:44;;;;;;;;;;;;;;;19.17;64.01;101796.56;5052099;28;1811;-37
2021/10/09 03:10:11;;;;;;;;;;;;;;;19.15;63.29;101785.09;5048414;28;1897;-36
2021/10/09 03:12:38;;;;;;;;;;;;;;;19.12;63.34;101785.34;5049533;28;1932;-36
2021/10/09 03:15:04;;;;;;;;;;;;;;;19.12;63.77;101790.72;5045914;28;1693;-36
2021/10/09 03:17:31;;;;;;;;;;;;;;;19.14;63.31;101794.13;5044740;28;1674;-36
2021/10/09 03:19:59;;;;;;;;;;;;;;;19.09;63.82;101780.19;5034469;28;1965;-36
2021/10/09 03:22:25;;;;;;;;;;;;;;;19.08;63.73;101784.72;5041316;28;1770;-36
2021/10/09 03:24:52;;;;;;;;;;;;;;;19.10;64.45;101786.41;5049367;28;1606;-36
2021/10/09 03:27:19;;;;;;;;;;;;;;;19.09;64.39;101790.91;5045538;28;1954;-36
2021/10/09 03:29:45;;;;;;;;;;;;;;;19.10;63.58;101799.81;5051865;28;1682;-36
2021/10/09 03:32:12;;;;;;;;;;;;;;;19.04;63.33;101767.13;5041994;28;1930;-36
2021/10/09 03:34:38;;;;;;;;;;;;;;;19.07;64.05;101782.97;5039610;28;1696;-36
2021/10/09 03:37:07;;;;;;;;;;;;;;;19.03;64.12;101781.50;5050658;28;1712;-36
2021/10/09 03:39:36;;;;;;;;;;;;;;;19.03;63.61;101797.56;5050484;28;1928;-36
2021/10/09 03:42:06;;;;;;;;;;;;;;;19.04;63.84;101775.19;5044750;28;1508;-36
2021/10/09 03:44:37;;;;;;;;;;;;;;;19.09;63.68;101793.59;5046975;28;1908;-36
2021/10/09 03:47:14;;;;;;;;;;;;;;;19.07;64.31;101793.69;5049939;28;1680;-36
2021/10/09 03:49:46;;;;;;;;;;;;;;;19.11;64.45;101799.72;5045577;28;1803;-37
2021/10/09 03:54:58;;;;;;;;;;;;;;;19.05;63.41;101784.91;5046460;28;1627;-36
2021/10/09 03:57:24;;;;;;;;;;;;;;;19.04;63.90;101777.84;5038646;28;1873;-36
2021/10/09 03:59:51;;;;;;;;;;;;;;;19.07;63.68;101788.34;5042202;28;1910;-35
2021/10/09 04:02:17;;;;;;;;;;;;;;;19.10;63.41;101791.75;5046878;28;1792;-37
2021/10/09 04:04:44;;;;;;;;;;;;;;;19.04;63.36;101785.91;5045575;28;1546;-36
2021/10/09 04:07:10;;;;;;;;;;;;;;;19.07;63.11;101787.50;5046082;28;1615;-36
2021/10/09 04:09:38;;;;;;;;;;;;;;;19.07;64.16;101793.69;5047234;28;1744;-36
2021/10/09 04:12:05;;;;;;;;;;;;;;;19.07;63.51;101809.78;5041877;28;1798;-36
2021/10/09 04:14:31;;;;;;;;;;;;;;;19.05;64.29;101806.38;5050518;28;1748;-36
2021/10/09 04:16:57;;;;;;;;;;;;;;;19.11;63.77;101809.59;5042441;28;1650;-35
2021/10/09 04:19:24;;;;;;;;;;;;;;;19.08;63.47;101799.94;5050497;28;1679;-36
2021/10/09 04:21:50;;;;;;;;;;;;;;;19.13;63.62;101813.84;5048313;28;2755;-38
2021/10/09 04:24:18;;;;;;;;;;;;;;;19.13;63.90;101800.44;5048098;28;1991;-36
2021/10/09 04:26:46;;;;;;;;;;;;;;;19.15;64.63;101801.19;5047511;28;1467;-37
2021/10/09 04:29:12;;;;;;;;;;;;;;;19.15;63.94;101813.75;5048390;28;1708;-36
2021/10/09 04:31:39;;;;;;;;;;;;;;;19.20;64.15;101819.63;5049955;28;1579;-45
2021/10/09 04:34:05;;;;;;;;;;;;;;;19.26;63.79;101819.19;5048556;28;1810;-45
2021/10/09 04:36:32;;;;;;;;;;;;;;;19.23;63.52;101816.72;5047343;28;2264;-44
2021/10/09 04:38:58;;;;;;;;;;;;;;;19.27;64.22;101816.38;5050404;28;1780;-45
2021/10/09 04:41:25;;;;;;;;;;;;;;;19.25;63.57;101822.84;5051703;28;1910;-45
2021/10/09 04:43:53;;;;;;;;;;;;;;;19.29;64.56;101818.97;5050654;28;1878;-44
2021/10/09 04:46:19;;;;;;;;;;;;;;;19.23;64.59;101831.00;5050903;28;1640;-45
2021/10/09 04:48:46;;;;;;;;;;;;;;;19.18;64.53;101833.16;5046448;28;1949;-45
2021/10/09 04:51:18;;;;;;;;;;;;;;;19.18;64.72;101829.59;5052134;28;1137;-45
2021/10/09 04:53:45;;;;;;;;;;;;;;;19.21;64.58;101826.72;5051958;28;1033;-45
2021/10/09 04:56:13;;;;;;;;;;;;;;;19.19;64.50;101834.00;5051375;28;3139;-44
2021/10/09 04:58:47;;;;;;;;;;;;;;;19.21;65.69;101832.91;5051302;28;1683;-45
2021/10/09 05:01:15;;;;;;;;;;;;;;;19.21;65.04;101832.06;5050776;28;1902;-45
2021/10/09 05:03:42;;;;;;;;;;;;;;;19.17;65.50;101836.78;5051110;28;1608;-44
2021/10/09 05:06:09;;;;;;;;;;;;;;;19.14;64.75;101842.41;5049603;28;1205;-45
2021/10/09 05:08:40;;;;;;;;;;;;;;;19.17;64.42;101846.69;5051151;28;1599;-45
2021/10/09 05:11:09;;;;;;;;;;;;;;;19.16;64.60;101853.00;5050864;28;1643;-45
2021/10/09 05:13:35;;;;;;;;;;;;;;;19.10;64.51;101846.28;5051165;28;1693;-44
2021/10/09 05:16:06;;;;;;;;;;;;;;;19.15;65.50;101856.66;5051405;28;2716;-44
2021/10/09 05:18:41;;;;;;;;;;;;;;;19.21;64.48;101865.09;5054638;28;1666;-44
2021/10/09 05:21:18;;;;;;;;;;;;;;;19.17;64.82;101863.63;5055371;28;2058;-44
2021/10/09 05:23:45;;;;;;;;;;;;;;;19.14;64.67;101857.59;5055018;28;1072;-44
2021/10/09 05:26:12;;;;;;;;;;;;;;;19.17;64.82;101850.19;5054463;28;1770;-44
2021/10/09 05:28:42;;;;;;;;;;;;;;;19.20;65.20;101867.88;5051527;28;1791;-44
2021/10/09 05:31:10;;;;;;;;;;;;;;;19.22;64.71;101865.97;5045655;28;1680;-45
2021/10/09 05:33:39;;;;;;;;;;;;;;;19.23;64.82;101862.31;5050818;28;1690;-43
2021/10/09 05:36:06;;;;;;;;;;;;;;;19.23;65.41;101865.84;5053673;28;1879;-44
2021/10/09 05:38:33;;;;;;;;;;;;;;;19.27;65.37;101869.19;5053650;28;1803;-44
2021/10/09 05:41:00;;;;;;;;;;;;;;;19.24;64.92;101866.72;5052134;28;1973;-45
2021/10/09 05:43:27;;;;;;;;;;;;;;;19.24;65.32;101875.63;5049586;28;1932;-45
2021/10/09 05:45:53;;;;;;;;;;;;;;;19.27;64.69;101874.53;5052113;28;1859;-44
2021/10/09 05:48:20;;;;;;;;;;;;;;;19.28;65.60;101887.00;5053469;28;1531;-44
2021/10/09 05:50:59;;;;;;;;;;;;;;;19.25;65.76;101884.53;5053959;28;1371;-44
2021/10/09 05:53:47;;;;;;;;;;;;;;;19.28;64.90;101887.00;5052035;28;1672;-45
2021/10/09 05:56:21;;;;;;;;;;;;;;;19.25;65.66;101882.69;5052265;28;1652;-45
2021/10/09 05:58:55;;;;;;;;;;;;;;;19.23;65.47;101876.56;5053163;28;1561;-45
2021/10/09 06:01:47;;;;;;;;;;;;;;;19.27;64.66;101893.31;5052164;28;1914;-46
2021/10/09 06:45:25;;;;;;;;;;;;;;;19.20;64.69;101924.19;5049195;28;1744;-45
2021/10/09 06:47:54;;;;;;;;;;;;;;;19.19;65.09;101933.22;5050102;28;1519;-49
2021/10/09 07:01:14;;;;;;;;;;;;;;;19.16;65.21;101944.16;5049052;28;1914;-45
2021/10/09 07:03:40;;;;;;;;;;;;;;;18.59;63.57;101956.94;5048977;28;1494;-44
2021/10/09 07:06:08;;;;;;;;;;;;;;;18.87;66.20;101941.69;5052008;28;1338;-45
2021/10/09 07:08:35;;;;;;;;;;;;;;;19.15;61.47;101947.81;5050901;28;1828;-45
2021/10/09 07:11:03;;;;;;;;;;;;;;;19.15;63.83;101943.31;5051850;28;1735;-44
2021/10/09 07:13:30;;;;;;;;;;;;;;;19.15;64.02;101954.03;5050279;28;1499;-44
2021/10/09 07:15:56;;;;;;;;;;;;;;;19.10;67.00;101956.19;5048627;28;1637;-43
2021/10/09 07:18:23;;;;;;;;;;;;;;;19.08;66.17;101950.94;5051124;28;1573;-43
2021/10/09 07:20:49;;;;;;;;;;;;;;;18.74;66.97;101956.84;5052330;28;1909;-45
2021/10/09 07:23:16;;;;;;;;;;;;;;;18.75;68.84;101966.63;5051281;28;1615;-44
2021/10/09 07:25:42;;;;;;;;;;;;;;;18.71;67.63;101967.81;5050114;28;1752;-46
2021/10/09 07:28:10;;;;;;;;;;;;;;;18.72;67.63;101964.16;5050850;28;1600;-45
2021/10/09 07:30:37;;;;;;;;;;;;;;;18.74;68.49;101963.09;5049113;28;2292;-45
2021/10/09 07:33:03;;;;;;;;;;;;;;;18.94;68.05;101961.75;5051113;28;1583;-45
2021/10/09 07:35:30;;;;;;;;;;;;;;;19.03;67.62;101946.84;5051415;28;1452;-45
2021/10/09 07:37:57;;;;;;;;;;;;;;;19.15;66.46;101956.72;5049022;28;1719;-46
2021/10/09 07:40:23;;;;;;;;;;;;;;;19.07;67.19;101949.19;5050622;28;1650;-47
2021/10/09 07:42:50;;;;;;;;;;;;;;;19.00;67.10;101952.41;5049745;28;1959;-46
2021/10/09 07:45:18;;;;;;;;;;;;;;;18.93;67.07;101969.91;5050811;28;1543;-46
2021/10/09 07:47:44;;;;;;;;;;;;;;;18.97;66.65;101958.00;5048701;28;1568;-45
2021/10/09 07:50:11;;;;;;;;;;;;;;;19.13;65.76;101947.91;5047445;28;10353;-42
2021/10/09 07:52:38;;;;;;;;;;;;;;;19.18;64.73;101956.50;5050898;28;1498;-47
2021/10/09 07:55:05;;;;;;;;;;;;;;;19.17;64.63;101970.88;5048864;28;1588;-47
2021/10/09 07:57:35;;;;;;;;;;;;;;;19.15;65.38;101961.22;5048864;28;1466;-46
2021/10/09 08:00:03;;;;;;;;;;;;;;;19.29;63.39;101955.75;5045638;28;1478;-46
2021/10/09 08:02:34;;;;;;;;;;;;;;;19.24;64.45;101960.59;5048589;28;1906;-47
2021/10/09 08:05:03;;;;;;;;;;;;;;;19.15;65.48;101962.06;5051483;28;1932;-47
2021/10/09 08:07:33;;;;;;;;;;;;;;;19.09;65.47;101959.81;5045329;28;1572;-47
2021/10/09 08:10:07;;;;;;;;;;;;;;;19.06;65.92;101946.66;5049239;28;1518;-47
2021/10/09 08:12:35;;;;;;;;;;;;;;;19.06;65.96;101958.22;5050982;28;1615;-47
2021/10/09 08:15:02;;;;;;;;;;;;;;;19.08;65.03;101950.94;5046655;28;1589;-47
2021/10/09 08:17:30;;;;;;;;;;;;;;;19.02;65.59;101946.00;5043938;28;1526;-47
2021/10/09 08:20:00;;;;;;;;;;;;;;;19.04;65.01;101946.75;5043654;28;1256;-48
2021/10/09 08:22:29;;;;;;;;;;;;;;;19.06;64.79;101952.88;5046213;28;1909;-47
2021/10/09 08:25:07;;;;;;;;;;;;;;;19.04;64.07;101957.47;5046268;28;1666;-47
2021/10/09 08:27:50;;;;;;;;;;;;;;;19.00;64.48;101947.94;5045106;28;1982;-47
2021/10/09 08:36:15;;;;;;;;;;;;;;;18.97;65.08;101958.00;5050692;28;1190;-48
2021/10/09 08:38:51;;;;;;;;;;;;;;;19.08;64.41;101960.81;5050674;28;1115;-48
2021/10/09 08:41:18;;;;;;;;;;;;;;;19.17;64.44;101953.94;5049760;28;2050;-47
2021/10/09 08:43:45;;;;;;;;;;;;;;;19.24;63.50;101947.19;5049937;28;1566;-47
2021/10/09 08:46:12;;;;;;;;;;;;;;;19.17;64.68;101954.78;5048476;28;2246;-47
2021/10/09 08:48:42;;;;;;;;;;;;;;;19.15;64.78;101959.41;5047191;28;2819;-46
2021/10/09 08:51:10;;;;;;;;;;;;;;;19.24;63.80;101963.28;5048399;28;1536;-47
2021/10/09 08:53:37;;;;;;;;;;;;;;;19.28;64.83;101965.63;5049023;28;1632;-47
2021/10/09 08:56:04;;;;;;;;;;;;;;;19.25;64.42;101962.28;5049740;28;1485;-45
2021/10/09 08:58:32;;;;;;;;;;;;;;;19.20;64.98;101961.75;5051725;28;1678;-45
2021/10/09 09:01:13;;;;;;;;;;;;;;;19.16;64.12;101957.56;5053059;28;1583;-44
2021/10/09 09:04:27;;;;;;;;;;;;;;;19.16;64.39;101969.16;5050502;28;1599;-44
2021/10/09 09:26:24;;;;;;;;;;;;;;;19.04;64.17;101952.13;5048757;28;1739;-44
2021/10/09 09:31:54;;;;;;;;;;;;;;;19.10;64.85;101952.63;5053021;28;1753;-44
2021/10/09 09:37:29;;;;;;;;;;;;;;;19.14;63.89;101959.50;5042231;28;2638;-44
2021/10/09 09:40:02;;;;;;;;;;;;;;;19.12;64.94;101950.69;5046307;28;1505;-45
2021/10/09 09:42:28;;;;;;;;;;;;;;;19.16;63.83;101955.75;5051169;28;1914;-53
2021/10/09 09:44:56;;;;;;;;;;;;;;;19.18;63.66;101961.00;5053335;28;1407;-53
2021/10/09 09:47:34;;;;;;;;;;;;;;;19.22;64.72;101959.84;5052407;28;1717;-52
2021/10/09 09:50:01;;;;;;;;;;;;;;;19.23;65.19;101959.72;5040277;28;1711;-52
2021/10/09 09:52:28;;;;;;;;;;;;;;;19.21;65.78;101960.78;5047347;28;1589;-53
2021/10/09 09:54:56;;;;;;;;;;;;;;;19.22;64.70;101967.88;5052945;28;1561;-52
2021/10/09 09:57:25;;;;;;;;;;;;;;;19.21;65.20;101972.38;5047922;28;1559;-53
2021/10/09 09:59:53;;;;;;;;;;;;;;;19.23;65.64;101980.31;5052784;28;1580;-53
2021/10/09 10:02:21;;;;;;;;;;;;;;;19.25;65.38;101973.88;5052072;28;1917;-52
2021/10/09 10:04:49;;;;;;;;;;;;;;;19.26;65.88;101969.38;5048210;28;2269;-52
2021/10/09 10:07:17;;;;;;;;;;;;;;;19.30;65.22;101968.19;5042441;28;1698;-52
2021/10/09 10:09:44;;;;;;;;;;;;;;;19.28;65.43;101967.44;5040026;28;2053;-52
2021/10/09 10:12:10;;;;;;;;;;;;;;;19.24;65.46;101965.94;5052238;28;1540;-52
2021/10/09 10:14:39;;;;;;;;;;;;;;;19.23;66.15;101948.13;5049252;28;1586;-52
2021/10/09 10:17:05;;;;;;;;;;;;;;;19.24;66.18;101963.28;5052719;28;1671;-52
2021/10/09 10:19:50;;;;;;;;;;;;;;;19.24;66.39;101966.81;5050163;28;1460;-52
2021/10/09 10:22:17;;;;;;;;;;;;;;;19.28;67.44;101972.81;5041760;28;1914;-52
2021/10/09 10:24:48;;;;;;;;;;;;;;;19.29;67.47;101971.84;5043731;28;1521;-52
2021/10/09 10:27:36;;;;;;;;;;;;;;;19.31;66.50;101969.91;5052759;28;2323;-52
2021/10/09 10:30:25;;;;;;;;;;;;;;;19.36;66.09;101985.66;5037383;28;1878;-52
2021/10/09 10:33:10;;;;;;;;;;;;;;;19.32;67.18;101968.94;5043693;28;1754;-53
2021/10/09 10:35:47;;;;;;;;;;;;;;;19.38;66.91;101973.03;5047293;28;1022;-52
2021/10/09 10:38:33;;;;;;;;;;;;;;;19.33;66.91;101981.38;5053329;28;2058;-52
2021/10/09 10:41:03;;;;;;;;;;;;;;;19.28;66.33;101972.81;5049948;28;2008;-52
2021/10/09 10:43:41;;;;;;;;;;;;;;;19.27;66.27;101977.31;5048222;28;1906;-52
2021/10/09 10:46:23;;;;;;;;;;;;;;;19.24;65.78;101968.63;5048532;28;2049;-52
2021/10/09 10:48:57;;;;;;;;;;;;;;;19.26;65.98;101986.31;5047730;28;2334;-48
2021/10/09 10:51:45;;;;;;;;;;;;;;;19.24;65.73;101977.53;5052546;28;1900;-50
2021/10/09 10:54:34;;;;;;;;;;;;;;;19.26;65.39;101988.16;5046185;28;1560;-50
2021/10/09 10:57:17;;;;;;;;;;;;;;;19.26;64.96;101978.28;5049306;28;1682;-50
2021/10/09 10:59:49;;;;;;;;;;;;;;;19.28;65.06;101983.53;5050029;28;1603;-50
2021/10/09 11:02:16;;;;;;;;;;;;;;;19.24;64.89;101979.38;5046911;28;1906;-52
2021/10/09 11:04:45;;;;;;;;;;;;;;;19.16;65.90;101989.75;5052038;28;1305;-50
2021/10/09 11:07:12;;;;;;;;;;;;;;;19.18;65.98;101979.75;5047789;28;1684;-49
2021/10/09 11:09:39;;;;;;;;;;;;;;;19.17;64.93;101980.75;5051835;28;1662;-49
2021/10/09 11:12:18;;;;;;;;;;;;;;;19.11;66.03;101983.84;5043868;28;2116;-50
2021/10/09 11:14:45;;;;;;;;;;;;;;;19.13;64.87;101974.72;5051494;28;1639;-50
2021/10/09 11:17:12;;;;;;;;;;;;;;;19.15;64.79;101985.34;5049118;28;1497;-50
2021/10/09 11:19:46;;;;;;;;;;;;;;;19.13;65.11;101957.78;5044041;28;1750;-50
2021/10/09 11:22:14;;;;;;;;;;;;;;;19.07;65.85;101973.31;5041112;28;1917;-50
2021/10/09 11:24:41;;;;;;;;;;;;;;;19.05;65.40;101972.56;5049618;28;1557;-50
2021/10/09 11:27:08;;;;;;;;;;;;;;;19.11;65.48;101970.44;5049425;28;1641;-50
2021/10/09 11:29:34;;;;;;;;;;;;;;;19.04;64.69;101973.56;5048552;28;1545;-50
2021/10/09 11:32:02;;;;;;;;;;;;;;;19.05;64.93;101961.84;5045428;28;1474;-51
2021/10/09 11:34:28;;;;;;;;;;;;;;;19.04;65.55;101970.88;5044946;28;1469;-50
2021/10/09 11:36:56;;;;;;;;;;;;;;;19.08;65.15;101967.03;5047324;28;1826;-49
2021/10/09 11:39:26;;;;;;;;;;;;;;;19.05;65.00;101961.84;5049029;28;1775;-49
2021/10/09 11:42:02;;;;;;;;;;;;;;;19.06;64.31;101952.00;5045142;28;1914;-50
2021/10/09 11:44:33;;;;;;;;;;;;;;;19.08;65.13;101968.84;5051446;28;2082;-50
2021/10/09 11:47:20;;;;;;;;;;;;;;;19.05;64.50;101963.69;5048668;28;1568;-51
2021/10/09 11:55:31;;;;;;;;;;;;;;;19.01;64.65;101956.81;5047659;28;1577;-51
2021/10/09 11:57:58;;;;;;;;;;;;;;;18.96;64.19;101962.50;5049518;28;1502;-50
2021/10/09 12:00:40;;;;;;;;;;;;;;;18.99;65.56;101966.78;5049911;28;1479;-50
2021/10/09 12:03:24;;;;;;;;;;;;;;;18.99;64.76;101972.16;5045532;28;1969;-50
2021/10/09 12:05:52;;;;;;;;;;;;;;;19.03;65.40;101960.25;5037682;28;2037;-50
2021/10/09 12:08:24;;;;;;;;;;;;;;;19.04;65.57;101980.75;5049463;28;1985;-50
2021/10/09 12:11:05;;;;;;;;;;;;;;;19.03;64.65;101954.88;5047900;28;1637;-49
2021/10/09 12:13:32;;;;;;;;;;;;;;;19.07;65.53;101965.28;5048569;28;1843;-50
2021/10/09 12:16:08;;;;;;;;;;;;;;;19.10;64.71;101944.59;5044840;28;1577;-50
2021/10/09 12:18:44;;;;;;;;;;;;;;;19.05;64.90;101951.13;5047468;28;1628;-49
2021/10/09 12:21:11;;;;;;;;;;;;;;;19.08;64.38;101961.66;5048527;28;1482;-50
2021/10/09 12:23:39;;;;;;;;;;;;;;;19.07;64.73;101959.06;5047799;28;1957;-50
2021/10/09 12:26:11;;;;;;;;;;;;;;;19.12;64.21;101961.41;5047823;28;2688;-46
2021/10/09 12:29:02;;;;;;;;;;;;;;;19.14;65.05;101946.97;5046938;28;1718;-47
2021/10/09 12:31:28;;;;;;;;;;;;;;;19.16;64.36;101960.25;5051831;28;2132;-47
2021/10/09 12:33:55;;;;;;;;;;;;;;;19.12;64.83;101962.31;5050083;28;1573;-46
2021/10/09 12:36:31;;;;;;;;;;;;;;;19.15;64.82;101978.16;5052071;28;1606;-47
2021/10/09 12:39:18;;;;;;;;;;;;;;;19.13;65.37;101973.88;5048603;28;2119;-48
2021/10/09 12:41:45;;;;;;;;;;;;;;;19.12;65.42;101966.78;5050281;28;1951;-47
2021/10/09 12:44:11;;;;;;;;;;;;;;;19.13;65.11;101973.88;5053393;28;1906;-47
2021/10/09 12:46:38;;;;;;;;;;;;;;;19.11;64.90;101970.44;5051971;28;1811;-48
2021/10/09 12:49:04;;;;;;;;;;;;;;;19.11;64.75;101955.22;5050931;28;1486;-47
2021/10/09 12:51:31;;;;;;;;;;;;;;;19.11;65.28;101965.09;5051831;28;1494;-48
2021/10/09 12:54:04;;;;;;;;;;;;;;;19.11;65.53;101959.72;5046393;28;10892;-48
2021/10/09 12:56:30;;;;;;;;;;;;;;;19.11;64.57;101967.78;5052949;28;1398;-46
2021/10/09 12:58:57;;;;;;;;;;;;;;;19.14;64.62;101959.50;5052388;28;2024;-47
2021/10/09 13:01:23;;;;;;;;;;;;;;;19.10;64.97;101958.88;5053588;28;1646;-46
2021/10/09 13:03:50;;;;;;;;;;;;;;;19.14;64.83;101954.13;5051524;28;1913;-46
2021/10/09 13:06:16;;;;;;;;;;;;;;;19.12;64.79;101953.38;5055057;28;2093;-47
2021/10/09 13:08:43;;;;;;;;;;;;;;;19.11;65.61;101962.41;5054255;28;1567;-46
2021/10/09 13:11:11;;;;;;;;;;;;;;;19.14;64.58;101959.50;5053791;28;1768;-46
2021/10/09 13:13:38;;;;;;;;;;;;;;;19.11;65.32;101951.69;5054449;28;1474;-46
2021/10/09 13:16:05;;;;;;;;;;;;;;;19.16;64.77;101952.19;5054693;28;1513;-45
2021/10/09 13:18:32;;;;;;;;;;;;;;;19.15;64.71;101958.53;5053217;28;1569;-48
2021/10/09 13:20:59;;;;;;;;;;;;;;;19.18;64.39;101951.16;5055182;28;1936;-46
2021/10/09 13:23:31;;;;;;;;;;;;;;;19.20;64.80;101967.09;5053984;28;2246;-46
2021/10/09 13:25:57;;;;;;;;;;;;;;;19.18;64.97;101961.00;5051147;28;1798;-47
2021/10/09 13:28:25;;;;;;;;;;;;;;;19.22;64.07;101967.88;5053675;28;1632;-46
2021/10/09 13:30:52;;;;;;;;;;;;;;;19.19;64.99;101966.25;5052293;28;1659;-47
2021/10/09 13:33:19;;;;;;;;;;;;;;;19.21;65.27;101972.38;5050380;28;1585;-46
2021/10/09 13:35:45;;;;;;;;;;;;;;;19.16;65.63;101968.28;5055456;28;1375;-46
2021/10/09 13:38:14;;;;;;;;;;;;;;;19.20;64.44;101975.16;5054043;28;1640;-46
2021/10/09 13:40:41;;;;;;;;;;;;;;;19.17;64.73;101964.66;5054398;28;1648;-47
2021/10/09 13:43:11;;;;;;;;;;;;;;;19.17;64.60;101965.50;5049920;28;2042;-47
2021/10/09 13:45:41;;;;;;;;;;;;;;;19.18;65.29;101966.34;5052511;28;2002;-47
2021/10/09 13:48:08;;;;;;;;;;;;;;;19.17;64.53;101954.78;5054488;28;1759;-48
2021/10/09 13:50:38;;;;;;;;;;;;;;;19.15;64.39;101953.19;5051531;28;1604;-47
2021/10/09 13:53:04;;;;;;;;;;;;;;;19.18;65.13;101955.63;5053908;28;1770;-46
2021/10/09 13:55:31;;;;;;;;;;;;;;;19.22;64.90;101954.47;5048290;28;1557;-49
2021/10/09 13:57:57;;;;;;;;;;;;;;;19.23;65.98;101948.97;5050314;28;1509;-46
2021/10/09 14:00:24;;;;;;;;;;;;;;;19.24;64.55;101950.72;5052126;28;1593;-48
2021/10/09 14:02:51;;;;;;;;;;;;;;;19.25;65.07;101944.38;5051029;28;1985;-47
2021/10/09 14:05:18;;;;;;;;;;;;;;;19.24;65.25;101944.50;5054701;28;1491;-46
2021/10/09 14:07:44;;;;;;;;;;;;;;;19.24;65.28;101944.50;5054483;28;2068;-46
2021/10/09 14:10:11;;;;;;;;;;;;;;;19.38;65.36;101930.97;5051135;28;1729;-46
2021/10/09 14:12:37;;;;;;;;;;;;;;;19.72;64.19;101944.66;5052512;28;1592;-45
2021/10/09 14:15:05;;;;;;;;;;;;;;;20.19;62.92;101940.31;5045343;28;1631;-45
2021/10/09 14:17:32;;;;;;;;;;;;;;;20.46;61.31;101939.19;5052782;28;1738;-46
2021/10/09 14:20:00;;;;;;;;;;;;;;;20.37;61.79;101937.19;5053181;28;2048;-46
2021/10/09 14:22:27;;;;;;;;;;;;;;;20.85;61.28;101950.56;5054028;28;1647;-45
2021/10/09 14:24:54;;;;;;;;;;;;;;;21.16;60.74;101932.03;5052972;28;2037;-46
2021/10/09 14:27:20;;;;;;;;;;;;;;;21.50;59.64;101957.13;5053777;28;1725;-44
2021/10/09 14:29:46;;;;;;;;;;;;;;;21.21;60.65;101960.28;5045165;28;1579;-45
2021/10/09 14:32:13;;;;;;;;;;;;;;;20.85;61.31;101961.34;5048716;28;2342;-44
2021/10/09 14:34:39;;;;;;;;;;;;;;;20.46;62.69;101960.69;5054435;28;1552;-44
2021/10/09 14:37:07;;;;;;;;;;;;;;;20.20;64.41;101960.81;5043047;28;1667;-45